Pagrindinis puslapis
METAR-TAF:

METAR-TAF

Oro uostai :

Antofagasta, Čilė

platuma: 23-26S, ilguma: 070-26W, Aukštis: 135 m

Dabartinis oras

Ataskaita buvo paskelbta 55 minutes, ne 15:00 UTC
Vėjas 10 kt iš Pietų/Pietvakarių
Temperatūra 19°C
Drėgmė 68%
Slėgis 1014 hPa
Matomumas 10 km arba daugiau
Mažai debesys ne aukštis 2000 ft
Išsisklaidę debesys ne aukštis 30000 ft

METAR: SCFA 291500Z 20010KT 9999 FEW020 SCT300 19/13 Q1014 NOSIG

Laikas: 12:55 (15:55 UTC)

Prognozė

Ataskaita buvo paskelbta 5 valandos ir 26 minutes, ne 10:29 UTC
Prognozė galioja nuo 29 metu 12 UTC su 30 metu 12 UTC
Vėjas 4 kt iš Pietų
Matomumas 10 km arba daugiau
Išsisklaidę debesys ne aukštis 1000 ft
Tapsmas
nuo 29 metu 15 UTC su 29 metu 17 UTC
Vėjas 12 kt iš Pietų/Pietvakarių
Matomumas 10 km arba daugiau
nėra debesų žemiau 1500 m ir nėra kamuolinių lietaus debesų
Tapsmas
nuo 30 metu 01 UTC su 30 metu 03 UTC
Vėjas 4 kt iš Pietų

TAF: SCFA 291029Z 2912/3012 19004KT 9999 SCT010 TX21/2917Z TN15/3010Z BECMG 2915/2917 20012KT CAVOK BECMG 3001/3003 19004KT

Orai ataskaitas ir orų prognozės (METAR, TAF).

turimą stotys yra geltonos ir raudonos taškus žemėlapyje.

Perkelti pele per norėdami pamatyti stoties vardą.

Tada spustelėkite, norėdami matyti oro stebėjimo ir prognozės.

Norėdami pakeisti žemėlapį: spustelėkite ant žalios mygtukų su juodo kryžiaus žemyn,; žalią mygtuką su brūkšneliu, jei norite nutolinti; arba žalių rodyklių gretimoms žemėlapius.


METAR-TAF: